sensor_id;sensor_type;location;lat;lon;timestamp;temperature;humidity
11532;DHT22;5822;51.000;5.874;2024-01-11T00:01:20;0.70;99.90
11532;DHT22;5822;51.000;5.874;2024-01-11T00:03:45;0.60;99.90
11532;DHT22;5822;51.000;5.874;2024-01-11T00:06:11;0.60;99.90
11532;DHT22;5822;51.000;5.874;2024-01-11T00:08:36;0.80;99.90
11532;DHT22;5822;51.000;5.874;2024-01-11T00:11:02;0.60;99.90
11532;DHT22;5822;51.000;5.874;2024-01-11T00:13:29;0.60;99.90
11532;DHT22;5822;51.000;5.874;2024-01-11T00:15:54;0.60;99.90
11532;DHT22;5822;51.000;5.874;2024-01-11T00:18:20;0.60;99.90
11532;DHT22;5822;51.000;5.874;2024-01-11T00:20:46;0.60;99.90
11532;DHT22;5822;51.000;5.874;2024-01-11T00:23:11;0.50;99.90
11532;DHT22;5822;51.000;5.874;2024-01-11T00:25:37;0.50;99.90
11532;DHT22;5822;51.000;5.874;2024-01-11T00:28:03;0.60;99.90
11532;DHT22;5822;51.000;5.874;2024-01-11T00:30:28;0.50;99.90
11532;DHT22;5822;51.000;5.874;2024-01-11T00:32:55;0.50;99.90
11532;DHT22;5822;51.000;5.874;2024-01-11T00:35:20;0.60;99.90
11532;DHT22;5822;51.000;5.874;2024-01-11T00:37:46;0.50;99.90
11532;DHT22;5822;51.000;5.874;2024-01-11T00:40:12;0.70;99.90
11532;DHT22;5822;51.000;5.874;2024-01-11T00:42:37;0.70;99.90
11532;DHT22;5822;51.000;5.874;2024-01-11T00:45:03;0.60;99.90
11532;DHT22;5822;51.000;5.874;2024-01-11T00:47:29;0.40;99.90
11532;DHT22;5822;51.000;5.874;2024-01-11T00:49:55;0.40;99.90
11532;DHT22;5822;51.000;5.874;2024-01-11T00:52:20;0.50;99.90
11532;DHT22;5822;51.000;5.874;2024-01-11T00:54:46;0.30;99.90
11532;DHT22;5822;51.000;5.874;2024-01-11T00:57:12;0.40;99.90
11532;DHT22;5822;51.000;5.874;2024-01-11T00:59:39;0.40;99.90
11532;DHT22;5822;51.000;5.874;2024-01-11T01:02:05;0.50;99.90
11532;DHT22;5822;51.000;5.874;2024-01-11T01:04:30;0.30;99.90
11532;DHT22;5822;51.000;5.874;2024-01-11T01:06:57;0.40;99.90
11532;DHT22;5822;51.000;5.874;2024-01-11T01:09:22;0.40;99.90
11532;DHT22;5822;51.000;5.874;2024-01-11T01:11:48;0.40;99.90
11532;DHT22;5822;51.000;5.874;2024-01-11T01:14:14;0.40;99.90
11532;DHT22;5822;51.000;5.874;2024-01-11T01:16:39;0.30;99.90
11532;DHT22;5822;51.000;5.874;2024-01-11T01:19:05;0.50;99.90
11532;DHT22;5822;51.000;5.874;2024-01-11T01:21:31;0.30;99.90
11532;DHT22;5822;51.000;5.874;2024-01-11T01:23:56;0.40;99.90
11532;DHT22;5822;51.000;5.874;2024-01-11T01:26:22;0.50;99.90
11532;DHT22;5822;51.000;5.874;2024-01-11T01:28:48;0.50;99.90
11532;DHT22;5822;51.000;5.874;2024-01-11T01:31:13;0.40;99.90
11532;DHT22;5822;51.000;5.874;2024-01-11T01:33:40;0.40;99.90
11532;DHT22;5822;51.000;5.874;2024-01-11T01:36:09;0.50;99.90
11532;DHT22;5822;51.000;5.874;2024-01-11T01:38:35;0.40;99.90
11532;DHT22;5822;51.000;5.874;2024-01-11T01:41:01;0.30;99.90
11532;DHT22;5822;51.000;5.874;2024-01-11T01:43:26;0.20;99.90
11532;DHT22;5822;51.000;5.874;2024-01-11T01:45:52;0.30;99.90
11532;DHT22;5822;51.000;5.874;2024-01-11T01:48:19;0.40;99.90
11532;DHT22;5822;51.000;5.874;2024-01-11T01:50:45;0.20;99.90
11532;DHT22;5822;51.000;5.874;2024-01-11T01:53:19;0.20;99.90
11532;DHT22;5822;51.000;5.874;2024-01-11T01:55:45;0.30;99.90
11532;DHT22;5822;51.000;5.874;2024-01-11T01:58:12;0.20;99.90
11532;DHT22;5822;51.000;5.874;2024-01-11T02:00:38;0.40;99.90
11532;DHT22;5822;51.000;5.874;2024-01-11T02:03:04;0.30;99.90
11532;DHT22;5822;51.000;5.874;2024-01-11T02:05:30;0.30;99.90
11532;DHT22;5822;51.000;5.874;2024-01-11T02:07:57;0.40;99.90
11532;DHT22;5822;51.000;5.874;2024-01-11T02:10:25;0.40;99.90
11532;DHT22;5822;51.000;5.874;2024-01-11T02:12:50;0.30;99.90
11532;DHT22;5822;51.000;5.874;2024-01-11T02:15:16;0.30;99.90
11532;DHT22;5822;51.000;5.874;2024-01-11T02:17:42;0.30;99.90
11532;DHT22;5822;51.000;5.874;2024-01-11T02:20:08;0.10;99.90
11532;DHT22;5822;51.000;5.874;2024-01-11T02:22:40;0.20;99.90
11532;DHT22;5822;51.000;5.874;2024-01-11T02:25:06;0.30;99.90
11532;DHT22;5822;51.000;5.874;2024-01-11T02:27:47;0.40;99.90
11532;DHT22;5822;51.000;5.874;2024-01-11T02:30:13;0.30;99.90
11532;DHT22;5822;51.000;5.874;2024-01-11T02:32:39;0.40;99.90
11532;DHT22;5822;51.000;5.874;2024-01-11T02:35:05;0.30;99.90
11532;DHT22;5822;51.000;5.874;2024-01-11T02:37:31;0.30;99.90
11532;DHT22;5822;51.000;5.874;2024-01-11T02:39:56;0.30;99.90
11532;DHT22;5822;51.000;5.874;2024-01-11T02:42:22;0.20;99.90
11532;DHT22;5822;51.000;5.874;2024-01-11T02:44:48;0.20;99.90
11532;DHT22;5822;51.000;5.874;2024-01-11T02:47:13;0.20;99.90
11532;DHT22;5822;51.000;5.874;2024-01-11T02:49:39;0.20;99.90
11532;DHT22;5822;51.000;5.874;2024-01-11T02:52:05;0.40;99.90
11532;DHT22;5822;51.000;5.874;2024-01-11T02:54:31;0.40;99.90
11532;DHT22;5822;51.000;5.874;2024-01-11T02:56:56;0.30;99.90
11532;DHT22;5822;51.000;5.874;2024-01-11T02:59:23;0.30;99.90
11532;DHT22;5822;51.000;5.874;2024-01-11T03:01:49;0.30;99.90
11532;DHT22;5822;51.000;5.874;2024-01-11T03:04:15;0.20;99.90
11532;DHT22;5822;51.000;5.874;2024-01-11T03:06:41;0.30;99.90
11532;DHT22;5822;51.000;5.874;2024-01-11T03:09:06;0.40;99.90
11532;DHT22;5822;51.000;5.874;2024-01-11T03:11:32;0.40;99.90
11532;DHT22;5822;51.000;5.874;2024-01-11T03:13:58;0.20;99.90
11532;DHT22;5822;51.000;5.874;2024-01-11T03:16:23;0.40;99.90
11532;DHT22;5822;51.000;5.874;2024-01-11T03:18:49;0.70;99.90
11532;DHT22;5822;51.000;5.874;2024-01-11T03:21:14;0.50;99.90
11532;DHT22;5822;51.000;5.874;2024-01-11T03:23:40;0.50;99.90
11532;DHT22;5822;51.000;5.874;2024-01-11T03:26:15;0.80;99.90
11532;DHT22;5822;51.000;5.874;2024-01-11T03:28:41;0.50;99.90
11532;DHT22;5822;51.000;5.874;2024-01-11T03:31:08;0.60;99.90
11532;DHT22;5822;51.000;5.874;2024-01-11T03:33:34;0.80;99.90
11532;DHT22;5822;51.000;5.874;2024-01-11T03:36:07;0.80;99.90
11532;DHT22;5822;51.000;5.874;2024-01-11T03:38:33;0.80;99.90
11532;DHT22;5822;51.000;5.874;2024-01-11T03:40:58;0.90;99.90
11532;DHT22;5822;51.000;5.874;2024-01-11T03:43:24;0.80;99.90
11532;DHT22;5822;51.000;5.874;2024-01-11T03:45:50;1.20;99.90
11532;DHT22;5822;51.000;5.874;2024-01-11T03:48:16;0.80;99.90
11532;DHT22;5822;51.000;5.874;2024-01-11T03:50:41;0.70;99.90
11532;DHT22;5822;51.000;5.874;2024-01-11T03:53:07;0.80;99.90
11532;DHT22;5822;51.000;5.874;2024-01-11T03:55:33;0.70;99.90
11532;DHT22;5822;51.000;5.874;2024-01-11T03:57:59;0.50;99.90
11532;DHT22;5822;51.000;5.874;2024-01-11T04:00:24;0.30;99.90
11532;DHT22;5822;51.000;5.874;2024-01-11T04:02:50;0.20;99.90
11532;DHT22;5822;51.000;5.874;2024-01-11T04:05:16;0.20;99.90
11532;DHT22;5822;51.000;5.874;2024-01-11T04:07:42;0.20;99.90
11532;DHT22;5822;51.000;5.874;2024-01-11T04:10:08;0.10;99.90
11532;DHT22;5822;51.000;5.874;2024-01-11T04:12:37;0.20;99.90
11532;DHT22;5822;51.000;5.874;2024-01-11T04:15:03;0.10;99.90
11532;DHT22;5822;51.000;5.874;2024-01-11T04:17:29;0.10;99.90
11532;DHT22;5822;51.000;5.874;2024-01-11T04:19:54;0.10;99.90
11532;DHT22;5822;51.000;5.874;2024-01-11T04:22:20;0.00;99.90
11532;DHT22;5822;51.000;5.874;2024-01-11T04:24:46;-0.10;99.90
11532;DHT22;5822;51.000;5.874;2024-01-11T04:27:11;0.00;99.90
11532;DHT22;5822;51.000;5.874;2024-01-11T04:29:37;0.00;99.90
11532;DHT22;5822;51.000;5.874;2024-01-11T04:32:03;-0.10;99.90
11532;DHT22;5822;51.000;5.874;2024-01-11T04:34:28;0.00;99.90
11532;DHT22;5822;51.000;5.874;2024-01-11T04:36:54;0.00;99.90
11532;DHT22;5822;51.000;5.874;2024-01-11T04:39:20;-0.10;99.90
11532;DHT22;5822;51.000;5.874;2024-01-11T04:41:45;0.00;99.90
11532;DHT22;5822;51.000;5.874;2024-01-11T04:44:11;0.00;99.90
11532;DHT22;5822;51.000;5.874;2024-01-11T04:46:37;0.10;99.90
11532;DHT22;5822;51.000;5.874;2024-01-11T04:49:02;-0.10;99.90
11532;DHT22;5822;51.000;5.874;2024-01-11T04:51:28;0.00;99.90
11532;DHT22;5822;51.000;5.874;2024-01-11T04:53:54;-0.10;99.90
11532;DHT22;5822;51.000;5.874;2024-01-11T04:56:20;0.00;99.90
11532;DHT22;5822;51.000;5.874;2024-01-11T04:58:47;-0.10;99.90
11532;DHT22;5822;51.000;5.874;2024-01-11T05:01:17;0.00;99.90
11532;DHT22;5822;51.000;5.874;2024-01-11T05:03:43;-0.10;99.90
11532;DHT22;5822;51.000;5.874;2024-01-11T05:06:16;0.30;99.90
11532;DHT22;5822;51.000;5.874;2024-01-11T05:08:43;0.50;99.90
11532;DHT22;5822;51.000;5.874;2024-01-11T05:11:18;0.30;99.90
11532;DHT22;5822;51.000;5.874;2024-01-11T05:13:44;0.30;99.90
11532;DHT22;5822;51.000;5.874;2024-01-11T05:16:29;0.30;99.90
11532;DHT22;5822;51.000;5.874;2024-01-11T05:18:56;0.40;99.90
11532;DHT22;5822;51.000;5.874;2024-01-11T05:21:23;0.30;99.90
11532;DHT22;5822;51.000;5.874;2024-01-11T05:23:49;0.40;99.90
11532;DHT22;5822;51.000;5.874;2024-01-11T05:26:16;0.50;99.90
11532;DHT22;5822;51.000;5.874;2024-01-11T05:28:42;0.70;99.90
11532;DHT22;5822;51.000;5.874;2024-01-11T05:31:10;0.70;99.90
11532;DHT22;5822;51.000;5.874;2024-01-11T05:33:36;0.60;99.90
11532;DHT22;5822;51.000;5.874;2024-01-11T05:36:02;0.50;99.90
11532;DHT22;5822;51.000;5.874;2024-01-11T05:38:28;0.60;99.90
11532;DHT22;5822;51.000;5.874;2024-01-11T05:40:53;0.70;99.90
11532;DHT22;5822;51.000;5.874;2024-01-11T05:43:19;0.60;99.90
11532;DHT22;5822;51.000;5.874;2024-01-11T05:45:44;0.40;99.90
11532;DHT22;5822;51.000;5.874;2024-01-11T05:48:10;0.50;99.90
11532;DHT22;5822;51.000;5.874;2024-01-11T05:50:36;0.20;99.90
11532;DHT22;5822;51.000;5.874;2024-01-11T05:53:02;0.30;99.90
11532;DHT22;5822;51.000;5.874;2024-01-11T05:55:28;0.60;99.90
11532;DHT22;5822;51.000;5.874;2024-01-11T05:57:53;0.30;99.90
11532;DHT22;5822;51.000;5.874;2024-01-11T06:00:19;0.30;99.90
11532;DHT22;5822;51.000;5.874;2024-01-11T06:02:45;0.10;99.90
11532;DHT22;5822;51.000;5.874;2024-01-11T06:05:11;0.00;99.90
11532;DHT22;5822;51.000;5.874;2024-01-11T06:07:40;0.20;99.90
11532;DHT22;5822;51.000;5.874;2024-01-11T06:10:07;0.00;99.90
11532;DHT22;5822;51.000;5.874;2024-01-11T06:12:34;0.40;99.90
11532;DHT22;5822;51.000;5.874;2024-01-11T06:15:01;0.50;99.90
11532;DHT22;5822;51.000;5.874;2024-01-11T06:17:27;0.60;99.90
11532;DHT22;5822;51.000;5.874;2024-01-11T06:19:52;0.70;99.90
11532;DHT22;5822;51.000;5.874;2024-01-11T06:22:18;0.90;99.90
11532;DHT22;5822;51.000;5.874;2024-01-11T06:24:44;0.50;99.90
11532;DHT22;5822;51.000;5.874;2024-01-11T06:27:09;0.30;99.90
11532;DHT22;5822;51.000;5.874;2024-01-11T06:29:35;0.20;99.90
11532;DHT22;5822;51.000;5.874;2024-01-11T06:32:01;0.20;99.90
11532;DHT22;5822;51.000;5.874;2024-01-11T06:34:27;0.30;99.90
11532;DHT22;5822;51.000;5.874;2024-01-11T06:36:54;0.20;99.90
11532;DHT22;5822;51.000;5.874;2024-01-11T06:39:20;0.20;99.90
11532;DHT22;5822;51.000;5.874;2024-01-11T06:41:45;0.30;99.90
11532;DHT22;5822;51.000;5.874;2024-01-11T06:44:11;0.40;99.90
11532;DHT22;5822;51.000;5.874;2024-01-11T06:46:37;0.60;99.90
11532;DHT22;5822;51.000;5.874;2024-01-11T06:49:04;0.50;99.90
11532;DHT22;5822;51.000;5.874;2024-01-11T06:51:30;0.20;99.90
11532;DHT22;5822;51.000;5.874;2024-01-11T06:53:56;0.10;99.90
11532;DHT22;5822;51.000;5.874;2024-01-11T06:56:21;0.00;99.90
11532;DHT22;5822;51.000;5.874;2024-01-11T06:58:47;0.40;99.90
11532;DHT22;5822;51.000;5.874;2024-01-11T07:01:13;0.50;99.90
11532;DHT22;5822;51.000;5.874;2024-01-11T07:03:39;0.50;99.90
11532;DHT22;5822;51.000;5.874;2024-01-11T07:06:05;0.60;99.90
11532;DHT22;5822;51.000;5.874;2024-01-11T07:08:31;0.30;99.90
11532;DHT22;5822;51.000;5.874;2024-01-11T07:11:01;0.10;99.90
11532;DHT22;5822;51.000;5.874;2024-01-11T07:13:30;0.20;99.90
11532;DHT22;5822;51.000;5.874;2024-01-11T07:15:57;0.10;99.90
11532;DHT22;5822;51.000;5.874;2024-01-11T07:18:26;-0.10;99.90
11532;DHT22;5822;51.000;5.874;2024-01-11T07:20:52;0.00;99.90
11532;DHT22;5822;51.000;5.874;2024-01-11T07:23:18;0.00;99.90
11532;DHT22;5822;51.000;5.874;2024-01-11T07:25:44;0.00;99.90
11532;DHT22;5822;51.000;5.874;2024-01-11T07:28:10;0.00;99.90
11532;DHT22;5822;51.000;5.874;2024-01-11T07:30:35;0.00;99.90
11532;DHT22;5822;51.000;5.874;2024-01-11T07:33:01;-0.10;99.90
11532;DHT22;5822;51.000;5.874;2024-01-11T07:35:27;0.10;99.90
11532;DHT22;5822;51.000;5.874;2024-01-11T07:37:53;0.00;99.90
11532;DHT22;5822;51.000;5.874;2024-01-11T07:40:19;0.30;99.90
11532;DHT22;5822;51.000;5.874;2024-01-11T07:42:45;0.40;99.90
11532;DHT22;5822;51.000;5.874;2024-01-11T07:45:12;0.20;99.90
11532;DHT22;5822;51.000;5.874;2024-01-11T07:47:38;0.00;99.90
11532;DHT22;5822;51.000;5.874;2024-01-11T07:50:08;0.10;99.90
11532;DHT22;5822;51.000;5.874;2024-01-11T07:52:38;0.10;99.90
11532;DHT22;5822;51.000;5.874;2024-01-11T07:55:04;0.20;99.90
11532;DHT22;5822;51.000;5.874;2024-01-11T07:57:39;0.20;99.90
11532;DHT22;5822;51.000;5.874;2024-01-11T08:00:07;0.30;99.90
11532;DHT22;5822;51.000;5.874;2024-01-11T08:02:33;0.30;99.90
11532;DHT22;5822;51.000;5.874;2024-01-11T08:04:59;0.10;99.90
11532;DHT22;5822;51.000;5.874;2024-01-11T08:07:28;0.10;99.90
11532;DHT22;5822;51.000;5.874;2024-01-11T08:09:55;0.20;99.90
11532;DHT22;5822;51.000;5.874;2024-01-11T08:12:21;0.10;99.90
11532;DHT22;5822;51.000;5.874;2024-01-11T08:17:14;0.40;99.90
11532;DHT22;5822;51.000;5.874;2024-01-11T08:41:51;0.50;99.90
11532;DHT22;5822;51.000;5.874;2024-01-11T08:44:18;0.50;99.90
11532;DHT22;5822;51.000;5.874;2024-01-11T08:46:43;0.70;99.90
11532;DHT22;5822;51.000;5.874;2024-01-11T08:49:09;0.50;99.90
11532;DHT22;5822;51.000;5.874;2024-01-11T08:51:35;0.40;99.90
11532;DHT22;5822;51.000;5.874;2024-01-11T08:54:01;0.40;99.90
11532;DHT22;5822;51.000;5.874;2024-01-11T08:56:26;0.50;99.90
11532;DHT22;5822;51.000;5.874;2024-01-11T08:58:53;0.80;99.90
11532;DHT22;5822;51.000;5.874;2024-01-11T09:01:19;0.90;99.90
11532;DHT22;5822;51.000;5.874;2024-01-11T09:03:44;0.60;99.90
11532;DHT22;5822;51.000;5.874;2024-01-11T09:06:10;0.40;99.90
11532;DHT22;5822;51.000;5.874;2024-01-11T09:08:39;1.20;99.90
11532;DHT22;5822;51.000;5.874;2024-01-11T09:11:06;1.10;99.90
11532;DHT22;5822;51.000;5.874;2024-01-11T09:13:32;1.20;99.90
11532;DHT22;5822;51.000;5.874;2024-01-11T09:15:58;0.90;99.90
11532;DHT22;5822;51.000;5.874;2024-01-11T09:18:24;0.60;99.90
11532;DHT22;5822;51.000;5.874;2024-01-11T09:20:49;1.10;99.90
11532;DHT22;5822;51.000;5.874;2024-01-11T09:23:16;1.10;99.90
11532;DHT22;5822;51.000;5.874;2024-01-11T09:25:43;1.10;99.90
11532;DHT22;5822;51.000;5.874;2024-01-11T09:28:09;1.10;99.90
11532;DHT22;5822;51.000;5.874;2024-01-11T09:30:34;1.20;99.90
11532;DHT22;5822;51.000;5.874;2024-01-11T09:33:00;1.30;99.90
11532;DHT22;5822;51.000;5.874;2024-01-11T09:35:26;1.40;99.90
11532;DHT22;5822;51.000;5.874;2024-01-11T09:37:51;1.30;99.90
11532;DHT22;5822;51.000;5.874;2024-01-11T09:40:18;1.40;99.90
11532;DHT22;5822;51.000;5.874;2024-01-11T09:45:19;1.40;99.90
11532;DHT22;5822;51.000;5.874;2024-01-11T09:47:45;1.40;99.90
11532;DHT22;5822;51.000;5.874;2024-01-11T09:50:13;1.40;99.90
11532;DHT22;5822;51.000;5.874;2024-01-11T09:52:49;1.50;99.90
11532;DHT22;5822;51.000;5.874;2024-01-11T09:55:16;1.10;99.90
11532;DHT22;5822;51.000;5.874;2024-01-11T09:57:44;1.60;99.90
11532;DHT22;5822;51.000;5.874;2024-01-11T10:00:19;1.50;99.90
11532;DHT22;5822;51.000;5.874;2024-01-11T10:02:47;1.50;99.90
11532;DHT22;5822;51.000;5.874;2024-01-11T10:05:13;1.50;99.90
11532;DHT22;5822;51.000;5.874;2024-01-11T10:07:41;1.40;99.90
11532;DHT22;5822;51.000;5.874;2024-01-11T10:10:07;1.60;99.90
11532;DHT22;5822;51.000;5.874;2024-01-11T10:12:37;1.60;99.90
11532;DHT22;5822;51.000;5.874;2024-01-11T10:15:07;1.60;99.90
11532;DHT22;5822;51.000;5.874;2024-01-11T10:17:45;1.60;99.90
11532;DHT22;5822;51.000;5.874;2024-01-11T10:20:14;1.60;99.90
11532;DHT22;5822;51.000;5.874;2024-01-11T10:22:41;1.60;99.90
11532;DHT22;5822;51.000;5.874;2024-01-11T10:25:15;1.60;99.90
11532;DHT22;5822;51.000;5.874;2024-01-11T10:27:41;1.70;99.90
11532;DHT22;5822;51.000;5.874;2024-01-11T10:30:08;1.80;99.90
11532;DHT22;5822;51.000;5.874;2024-01-11T10:32:34;1.80;99.90
11532;DHT22;5822;51.000;5.874;2024-01-11T10:35:03;1.80;99.90
11532;DHT22;5822;51.000;5.874;2024-01-11T10:37:31;1.70;99.90
11532;DHT22;5822;51.000;5.874;2024-01-11T10:40:05;1.80;99.90
11532;DHT22;5822;51.000;5.874;2024-01-11T10:42:36;1.80;99.90
11532;DHT22;5822;51.000;5.874;2024-01-11T10:45:03;1.90;99.90
11532;DHT22;5822;51.000;5.874;2024-01-11T10:47:34;1.90;99.90
11532;DHT22;5822;51.000;5.874;2024-01-11T10:50:01;2.10;99.90
11532;DHT22;5822;51.000;5.874;2024-01-11T10:52:36;1.90;99.90
11532;DHT22;5822;51.000;5.874;2024-01-11T10:55:07;1.80;99.90
11532;DHT22;5822;51.000;5.874;2024-01-11T10:57:33;1.90;99.90
11532;DHT22;5822;51.000;5.874;2024-01-11T11:00:00;2.10;99.90
11532;DHT22;5822;51.000;5.874;2024-01-11T11:02:29;2.20;99.90
11532;DHT22;5822;51.000;5.874;2024-01-11T11:04:55;2.20;99.90
11532;DHT22;5822;51.000;5.874;2024-01-11T11:07:22;2.30;99.90
11532;DHT22;5822;51.000;5.874;2024-01-11T11:09:49;2.20;99.90
11532;DHT22;5822;51.000;5.874;2024-01-11T11:12:18;2.30;99.90
11532;DHT22;5822;51.000;5.874;2024-01-11T11:14:46;2.30;99.90
11532;DHT22;5822;51.000;5.874;2024-01-11T11:17:14;2.30;99.90
11532;DHT22;5822;51.000;5.874;2024-01-11T11:19:40;2.40;99.90
11532;DHT22;5822;51.000;5.874;2024-01-11T11:22:07;2.40;99.90
11532;DHT22;5822;51.000;5.874;2024-01-11T11:24:34;2.30;99.90
11532;DHT22;5822;51.000;5.874;2024-01-11T11:27:00;2.40;99.90
11532;DHT22;5822;51.000;5.874;2024-01-11T11:29:26;2.30;99.90
11532;DHT22;5822;51.000;5.874;2024-01-11T11:31:52;2.50;99.90
11532;DHT22;5822;51.000;5.874;2024-01-11T11:34:43;2.60;99.90
11532;DHT22;5822;51.000;5.874;2024-01-11T11:37:10;2.60;99.90
11532;DHT22;5822;51.000;5.874;2024-01-11T11:39:36;2.70;99.90
11532;DHT22;5822;51.000;5.874;2024-01-11T11:42:03;2.60;99.90
11532;DHT22;5822;51.000;5.874;2024-01-11T11:44:29;2.70;99.90
11532;DHT22;5822;51.000;5.874;2024-01-11T11:47:17;2.70;99.90
11532;DHT22;5822;51.000;5.874;2024-01-11T11:52:25;2.80;99.90
11532;DHT22;5822;51.000;5.874;2024-01-11T11:54:50;2.80;99.90
11532;DHT22;5822;51.000;5.874;2024-01-11T11:57:17;2.80;99.90
11532;DHT22;5822;51.000;5.874;2024-01-11T11:59:43;2.80;99.90
11532;DHT22;5822;51.000;5.874;2024-01-11T12:02:13;2.80;99.90
11532;DHT22;5822;51.000;5.874;2024-01-11T12:04:46;2.90;99.90
11532;DHT22;5822;51.000;5.874;2024-01-11T12:07:12;3.00;99.90
11532;DHT22;5822;51.000;5.874;2024-01-11T12:09:38;2.90;99.90
11532;DHT22;5822;51.000;5.874;2024-01-11T12:12:04;2.80;99.90
11532;DHT22;5822;51.000;5.874;2024-01-11T12:14:30;2.90;99.90
11532;DHT22;5822;51.000;5.874;2024-01-11T12:16:59;3.00;99.90
11532;DHT22;5822;51.000;5.874;2024-01-11T12:19:25;3.20;99.90
11532;DHT22;5822;51.000;5.874;2024-01-11T12:21:51;3.10;99.90
11532;DHT22;5822;51.000;5.874;2024-01-11T12:24:17;3.10;99.90
11532;DHT22;5822;51.000;5.874;2024-01-11T12:26:46;3.10;99.90
11532;DHT22;5822;51.000;5.874;2024-01-11T12:29:13;3.10;99.90
11532;DHT22;5822;51.000;5.874;2024-01-11T12:31:39;3.20;99.90
11532;DHT22;5822;51.000;5.874;2024-01-11T12:34:09;3.30;99.90
11532;DHT22;5822;51.000;5.874;2024-01-11T12:36:35;3.40;99.90
11532;DHT22;5822;51.000;5.874;2024-01-11T12:39:00;3.40;99.90
11532;DHT22;5822;51.000;5.874;2024-01-11T12:41:26;3.40;99.90
11532;DHT22;5822;51.000;5.874;2024-01-11T12:43:52;3.40;99.90
11532;DHT22;5822;51.000;5.874;2024-01-11T12:46:18;3.40;99.90
11532;DHT22;5822;51.000;5.874;2024-01-11T12:48:44;3.50;99.90
11532;DHT22;5822;51.000;5.874;2024-01-11T12:51:10;3.40;99.90
11532;DHT22;5822;51.000;5.874;2024-01-11T12:53:36;3.50;99.90
11532;DHT22;5822;51.000;5.874;2024-01-11T12:58:33;3.60;99.90
11532;DHT22;5822;51.000;5.874;2024-01-11T13:00:59;3.50;99.90
11532;DHT22;5822;51.000;5.874;2024-01-11T13:03:25;3.60;99.90
11532;DHT22;5822;51.000;5.874;2024-01-11T13:05:52;3.70;99.90
11532;DHT22;5822;51.000;5.874;2024-01-11T13:08:18;3.80;99.90
11532;DHT22;5822;51.000;5.874;2024-01-11T13:10:44;3.70;99.90
11532;DHT22;5822;51.000;5.874;2024-01-11T13:13:09;3.80;99.90
11532;DHT22;5822;51.000;5.874;2024-01-11T13:15:35;3.80;99.90
11532;DHT22;5822;51.000;5.874;2024-01-11T13:18:02;3.80;99.90
11532;DHT22;5822;51.000;5.874;2024-01-11T13:20:28;3.90;99.90
11532;DHT22;5822;51.000;5.874;2024-01-11T13:23:21;3.90;99.90
11532;DHT22;5822;51.000;5.874;2024-01-11T13:25:48;3.90;99.90
11532;DHT22;5822;51.000;5.874;2024-01-11T13:28:15;3.80;99.90
11532;DHT22;5822;51.000;5.874;2024-01-11T13:30:41;3.80;99.90
11532;DHT22;5822;51.000;5.874;2024-01-11T13:33:08;3.80;99.90
11532;DHT22;5822;51.000;5.874;2024-01-11T13:35:35;3.80;99.90
11532;DHT22;5822;51.000;5.874;2024-01-11T13:38:01;3.80;99.90
11532;DHT22;5822;51.000;5.874;2024-01-11T13:40:28;3.80;99.90
11532;DHT22;5822;51.000;5.874;2024-01-11T13:42:55;3.80;99.90
11532;DHT22;5822;51.000;5.874;2024-01-11T13:45:24;3.80;99.90
11532;DHT22;5822;51.000;5.874;2024-01-11T13:47:53;3.80;99.90
11532;DHT22;5822;51.000;5.874;2024-01-11T13:50:20;3.80;99.90
11532;DHT22;5822;51.000;5.874;2024-01-11T13:52:45;3.80;99.90
11532;DHT22;5822;51.000;5.874;2024-01-11T13:55:12;3.80;99.90
11532;DHT22;5822;51.000;5.874;2024-01-11T13:57:38;3.90;99.90
11532;DHT22;5822;51.000;5.874;2024-01-11T14:00:06;3.90;99.90
11532;DHT22;5822;51.000;5.874;2024-01-11T14:02:36;3.80;99.90
11532;DHT22;5822;51.000;5.874;2024-01-11T14:05:02;3.90;99.90
11532;DHT22;5822;51.000;5.874;2024-01-11T14:07:29;3.90;99.90
11532;DHT22;5822;51.000;5.874;2024-01-11T14:09:56;3.90;99.90
11532;DHT22;5822;51.000;5.874;2024-01-11T14:12:21;3.90;99.90
11532;DHT22;5822;51.000;5.874;2024-01-11T14:14:47;3.80;99.90
11532;DHT22;5822;51.000;5.874;2024-01-11T14:17:13;3.80;99.90
11532;DHT22;5822;51.000;5.874;2024-01-11T14:19:38;3.70;99.90
11532;DHT22;5822;51.000;5.874;2024-01-11T14:22:04;3.80;99.90
11532;DHT22;5822;51.000;5.874;2024-01-11T14:24:30;3.70;99.90
11532;DHT22;5822;51.000;5.874;2024-01-11T14:26:56;3.80;99.90
11532;DHT22;5822;51.000;5.874;2024-01-11T14:29:21;3.70;99.90
11532;DHT22;5822;51.000;5.874;2024-01-11T14:31:47;3.80;99.90
11532;DHT22;5822;51.000;5.874;2024-01-11T14:34:13;3.70;99.90
11532;DHT22;5822;51.000;5.874;2024-01-11T14:36:39;3.60;99.90
11532;DHT22;5822;51.000;5.874;2024-01-11T14:39:04;3.70;99.90
11532;DHT22;5822;51.000;5.874;2024-01-11T14:41:31;3.70;99.90
11532;DHT22;5822;51.000;5.874;2024-01-11T14:43:57;3.60;99.90
11532;DHT22;5822;51.000;5.874;2024-01-11T14:46:25;3.50;99.90
11532;DHT22;5822;51.000;5.874;2024-01-11T14:48:51;3.50;99.90
11532;DHT22;5822;51.000;5.874;2024-01-11T14:51:17;3.70;99.90
11532;DHT22;5822;51.000;5.874;2024-01-11T14:53:42;3.60;99.90
11532;DHT22;5822;51.000;5.874;2024-01-11T14:56:08;3.70;99.90
11532;DHT22;5822;51.000;5.874;2024-01-11T14:58:34;3.70;99.90
11532;DHT22;5822;51.000;5.874;2024-01-11T15:00:59;3.70;99.90
11532;DHT22;5822;51.000;5.874;2024-01-11T15:03:25;3.70;99.90
11532;DHT22;5822;51.000;5.874;2024-01-11T15:05:53;3.70;99.90
11532;DHT22;5822;51.000;5.874;2024-01-11T15:08:20;3.80;99.90
11532;DHT22;5822;51.000;5.874;2024-01-11T15:10:46;3.70;99.90
11532;DHT22;5822;51.000;5.874;2024-01-11T15:13:12;3.80;99.90
11532;DHT22;5822;51.000;5.874;2024-01-11T15:15:38;3.80;99.90
11532;DHT22;5822;51.000;5.874;2024-01-11T15:18:04;3.90;99.90
11532;DHT22;5822;51.000;5.874;2024-01-11T15:20:30;3.90;99.90
11532;DHT22;5822;51.000;5.874;2024-01-11T15:22:56;3.90;99.90
11532;DHT22;5822;51.000;5.874;2024-01-11T15:25:22;4.00;99.90
11532;DHT22;5822;51.000;5.874;2024-01-11T15:27:49;4.00;99.90
11532;DHT22;5822;51.000;5.874;2024-01-11T15:30:15;3.90;99.90
11532;DHT22;5822;51.000;5.874;2024-01-11T15:32:42;3.80;99.90
11532;DHT22;5822;51.000;5.874;2024-01-11T15:35:08;3.80;99.90
11532;DHT22;5822;51.000;5.874;2024-01-11T15:37:34;3.80;99.90
11532;DHT22;5822;51.000;5.874;2024-01-11T15:40:01;3.70;99.90
11532;DHT22;5822;51.000;5.874;2024-01-11T15:42:27;3.70;99.90
11532;DHT22;5822;51.000;5.874;2024-01-11T15:44:53;3.70;99.90
11532;DHT22;5822;51.000;5.874;2024-01-11T15:47:18;3.70;99.90
11532;DHT22;5822;51.000;5.874;2024-01-11T15:49:44;3.70;99.90
11532;DHT22;5822;51.000;5.874;2024-01-11T15:52:10;3.90;99.90
11532;DHT22;5822;51.000;5.874;2024-01-11T15:54:38;3.90;99.90
11532;DHT22;5822;51.000;5.874;2024-01-11T15:57:04;3.80;99.90
11532;DHT22;5822;51.000;5.874;2024-01-11T15:59:30;3.80;99.90
11532;DHT22;5822;51.000;5.874;2024-01-11T16:01:56;3.70;99.90
11532;DHT22;5822;51.000;5.874;2024-01-11T16:04:22;3.80;99.90
11532;DHT22;5822;51.000;5.874;2024-01-11T16:06:47;3.70;99.90
11532;DHT22;5822;51.000;5.874;2024-01-11T16:09:13;3.80;99.90
11532;DHT22;5822;51.000;5.874;2024-01-11T16:11:40;3.80;99.90
11532;DHT22;5822;51.000;5.874;2024-01-11T16:14:06;3.90;99.90
11532;DHT22;5822;51.000;5.874;2024-01-11T16:16:33;3.70;99.90
11532;DHT22;5822;51.000;5.874;2024-01-11T16:18:58;3.70;99.90
11532;DHT22;5822;51.000;5.874;2024-01-11T16:21:24;3.50;99.90
11532;DHT22;5822;51.000;5.874;2024-01-11T16:23:54;3.50;99.90
11532;DHT22;5822;51.000;5.874;2024-01-11T16:26:21;3.40;99.90
11532;DHT22;5822;51.000;5.874;2024-01-11T16:28:47;3.30;99.90
11532;DHT22;5822;51.000;5.874;2024-01-11T16:31:16;3.30;99.90